sensor_id;sensor_type;location;lat;lon;timestamp;pressure;altitude;pressure_sealevel;temperature;humidity
16595;BME280;8410;52.532;13.336;2023-03-19T00:01:51;100883.84;;;14.16;67.71
16595;BME280;8410;52.532;13.336;2023-03-19T00:04:20;100889.03;;;14.19;67.69
16595;BME280;8410;52.532;13.336;2023-03-19T00:06:49;100889.06;;;14.11;68.70
16595;BME280;8410;52.532;13.336;2023-03-19T00:09:18;100887.31;;;14.15;67.65
16595;BME280;8410;52.532;13.336;2023-03-19T00:11:46;100887.31;;;14.24;67.63
16595;BME280;8410;52.532;13.336;2023-03-19T00:14:15;100882.16;;;14.20;66.53
16595;BME280;8410;52.532;13.336;2023-03-19T00:16:43;100876.94;;;14.03;67.30
16595;BME280;8410;52.532;13.336;2023-03-19T00:19:10;100880.38;;;13.80;68.82
16595;BME280;8410;52.532;13.336;2023-03-19T00:21:39;100882.97;;;14.00;66.76
16595;BME280;8410;52.532;13.336;2023-03-19T00:24:07;100885.59;;;13.99;67.60
16595;BME280;8410;52.532;13.336;2023-03-19T00:26:35;100878.66;;;13.88;67.39
16595;BME280;8410;52.532;13.336;2023-03-19T00:29:04;100883.00;;;14.11;65.53
16595;BME280;8410;52.532;13.336;2023-03-19T00:31:31;100878.69;;;14.01;66.04
16595;BME280;8410;52.532;13.336;2023-03-19T00:34:00;100890.75;;;14.11;65.57
16595;BME280;8410;52.532;13.336;2023-03-19T00:36:28;100884.72;;;14.10;64.83
16595;BME280;8410;52.532;13.336;2023-03-19T00:38:57;100886.44;;;13.98;64.70
16595;BME280;8410;52.532;13.336;2023-03-19T00:41:25;100889.88;;;14.03;64.73
16595;BME280;8410;52.532;13.336;2023-03-19T00:43:53;100892.47;;;13.97;65.21
16595;BME280;8410;52.532;13.336;2023-03-19T00:46:21;100887.25;;;13.57;65.46
16595;BME280;8410;52.532;13.336;2023-03-19T00:48:49;100890.69;;;13.71;65.18
16595;BME280;8410;52.532;13.336;2023-03-19T00:51:22;100882.09;;;13.61;64.94
16595;BME280;8410;52.532;13.336;2023-03-19T00:53:50;100890.72;;;13.63;65.12
16595;BME280;8410;52.532;13.336;2023-03-19T00:56:19;100903.66;;;13.63;64.74
16595;BME280;8410;52.532;13.336;2023-03-19T00:58:47;100888.13;;;13.70;66.24
16595;BME280;8410;52.532;13.336;2023-03-19T01:01:16;100897.56;;;13.51;64.98
16595;BME280;8410;52.532;13.336;2023-03-19T01:03:44;100906.22;;;13.65;64.40
16595;BME280;8410;52.532;13.336;2023-03-19T01:06:12;100894.13;;;13.52;65.23
16595;BME280;8410;52.532;13.336;2023-03-19T01:08:40;100895.81;;;13.40;65.05
16595;BME280;8410;52.532;13.336;2023-03-19T01:11:09;100892.31;;;13.26;66.01
16595;BME280;8410;52.532;13.336;2023-03-19T01:13:39;100900.44;;;12.45;67.03
16595;BME280;8410;52.532;13.336;2023-03-19T01:16:07;100901.69;;;13.07;66.12
16595;BME280;8410;52.532;13.336;2023-03-19T01:18:35;100900.03;;;13.21;67.45
16595;BME280;8410;52.532;13.336;2023-03-19T01:21:03;100894.91;;;13.34;65.82
16595;BME280;8410;52.532;13.336;2023-03-19T01:23:31;100898.41;;;13.40;64.84
16595;BME280;8410;52.532;13.336;2023-03-19T01:25:59;100905.28;;;13.35;64.79
16595;BME280;8410;52.532;13.336;2023-03-19T01:28:27;100899.22;;;13.27;65.62
16595;BME280;8410;52.532;13.336;2023-03-19T01:30:58;100907.00;;;13.35;64.36
16595;BME280;8410;52.532;13.336;2023-03-19T01:33:27;100898.41;;;13.42;64.48
16595;BME280;8410;52.532;13.336;2023-03-19T01:35:54;100906.16;;;13.46;63.61
16595;BME280;8410;52.532;13.336;2023-03-19T01:38:23;100905.34;;;13.58;63.55
16595;BME280;8410;52.532;13.336;2023-03-19T01:40:50;100909.50;;;13.21;64.78
16595;BME280;8410;52.532;13.336;2023-03-19T01:43:19;100910.41;;;13.28;63.96
16595;BME280;8410;52.532;13.336;2023-03-19T01:45:49;100911.22;;;13.25;63.22
16595;BME280;8410;52.532;13.336;2023-03-19T01:48:25;100911.19;;;13.17;64.25
16595;BME280;8410;52.532;13.336;2023-03-19T01:50:54;100914.63;;;13.12;63.54
16595;BME280;8410;52.532;13.336;2023-03-19T01:53:25;100921.47;;;13.07;63.74
16595;BME280;8410;52.532;13.336;2023-03-19T01:55:57;100921.56;;;13.22;64.02
16595;BME280;8410;52.532;13.336;2023-03-19T01:58:26;100918.94;;;13.13;63.80
16595;BME280;8410;52.532;13.336;2023-03-19T02:00:54;100919.75;;;12.99;64.18
16595;BME280;8410;52.532;13.336;2023-03-19T02:03:24;100921.44;;;12.97;64.03
16595;BME280;8410;52.532;13.336;2023-03-19T02:05:54;100911.94;;;12.93;63.51
16595;BME280;8410;52.532;13.336;2023-03-19T02:08:23;100900.75;;;12.94;62.75
16595;BME280;8410;52.532;13.336;2023-03-19T02:10:52;100911.09;;;12.97;63.08
16595;BME280;8410;52.532;13.336;2023-03-19T02:13:21;100905.97;;;13.03;62.97
16595;BME280;8410;52.532;13.336;2023-03-19T02:15:49;100893.09;;;13.17;63.29
16595;BME280;8410;52.532;13.336;2023-03-19T02:18:17;100896.59;;;13.21;62.70
16595;BME280;8410;52.532;13.336;2023-03-19T02:20:50;100887.00;;;13.01;62.70
16595;BME280;8410;52.532;13.336;2023-03-19T02:23:29;100893.81;;;12.87;63.25
16595;BME280;8410;52.532;13.336;2023-03-19T02:26:05;100895.69;;;13.16;61.68
16595;BME280;8410;52.532;13.336;2023-03-19T02:28:33;100897.19;;;12.77;62.78
16595;BME280;8410;52.532;13.336;2023-03-19T02:31:03;100903.34;;;12.94;62.97
16595;BME280;8410;52.532;13.336;2023-03-19T02:33:31;100900.56;;;12.67;62.74
16595;BME280;8410;52.532;13.336;2023-03-19T02:36:00;100902.47;;;12.95;62.02
16595;BME280;8410;52.532;13.336;2023-03-19T02:38:31;100905.88;;;12.87;62.20
16595;BME280;8410;52.532;13.336;2023-03-19T02:41:01;100893.00;;;12.96;63.02
16595;BME280;8410;52.532;13.336;2023-03-19T02:43:32;100896.47;;;12.99;63.59
16595;BME280;8410;52.532;13.336;2023-03-19T02:46:01;100904.22;;;12.96;62.36
16595;BME280;8410;52.532;13.336;2023-03-19T02:48:29;100899.81;;;12.78;62.88
16595;BME280;8410;52.532;13.336;2023-03-19T02:50:57;100893.00;;;12.99;61.94
16595;BME280;8410;52.532;13.336;2023-03-19T02:53:25;100893.94;;;13.09;62.62
16595;BME280;8410;52.532;13.336;2023-03-19T02:55:52;100894.69;;;12.91;62.47
16595;BME280;8410;52.532;13.336;2023-03-19T02:58:20;100888.66;;;12.87;62.51
16595;BME280;8410;52.532;13.336;2023-03-19T03:00:49;100893.53;;;12.41;63.21
16595;BME280;8410;52.532;13.336;2023-03-19T03:03:17;100890.44;;;12.94;61.23
16595;BME280;8410;52.532;13.336;2023-03-19T03:05:45;100880.94;;;12.95;60.93
16595;BME280;8410;52.532;13.336;2023-03-19T03:08:12;100880.94;;;12.92;61.92
16595;BME280;8410;52.532;13.336;2023-03-19T03:10:40;100886.97;;;12.92;60.68
16595;BME280;8410;52.532;13.336;2023-03-19T03:13:07;100890.47;;;13.08;61.76
16595;BME280;8410;52.532;13.336;2023-03-19T03:15:34;100877.59;;;13.17;61.07
16595;BME280;8410;52.532;13.336;2023-03-19T03:18:04;100885.28;;;13.07;61.25
16595;BME280;8410;52.532;13.336;2023-03-19T03:20:32;100886.09;;;12.86;61.36
16595;BME280;8410;52.532;13.336;2023-03-19T03:22:59;100893.00;;;12.94;62.26
16595;BME280;8410;52.532;13.336;2023-03-19T03:25:27;100889.59;;;13.03;61.70
16595;BME280;8410;52.532;13.336;2023-03-19T03:27:55;100899.91;;;13.01;62.31
16595;BME280;8410;52.532;13.336;2023-03-19T03:30:23;100908.66;;;13.23;61.84
16595;BME280;8410;52.532;13.336;2023-03-19T03:32:51;100915.53;;;13.23;60.56
16595;BME280;8410;52.532;13.336;2023-03-19T03:35:19;100934.50;;;13.25;61.89
16595;BME280;8410;52.532;13.336;2023-03-19T03:37:48;100940.66;;;13.49;61.14
16595;BME280;8410;52.532;13.336;2023-03-19T03:40:15;100942.38;;;13.43;61.80
16595;BME280;8410;52.532;13.336;2023-03-19T03:42:43;100939.88;;;12.29;62.49
16595;BME280;8410;52.532;13.336;2023-03-19T03:45:11;100939.88;;;12.29;65.07
16595;BME280;8410;52.532;13.336;2023-03-19T03:47:39;100950.63;;;12.81;64.27
16595;BME280;8410;52.532;13.336;2023-03-19T03:50:08;100938.63;;;12.86;62.49
16595;BME280;8410;52.532;13.336;2023-03-19T03:52:38;100953.13;;;12.67;62.71
16595;BME280;8410;52.532;13.336;2023-03-19T03:55:08;100950.41;;;11.65;64.44
16595;BME280;8410;52.532;13.336;2023-03-19T03:57:35;100939.13;;;12.42;64.51
16595;BME280;8410;52.532;13.336;2023-03-19T04:00:04;100942.94;;;12.93;63.94
16595;BME280;8410;52.532;13.336;2023-03-19T04:02:32;100940.31;;;12.81;63.24
16595;BME280;8410;52.532;13.336;2023-03-19T04:04:59;100950.50;;;12.63;64.33
16595;BME280;8410;52.532;13.336;2023-03-19T04:07:27;100938.59;;;12.83;62.85
16595;BME280;8410;52.532;13.336;2023-03-19T04:09:57;100950.66;;;12.87;63.36
16595;BME280;8410;52.532;13.336;2023-03-19T04:12:24;100947.28;;;12.97;62.16
16595;BME280;8410;52.532;13.336;2023-03-19T04:14:52;100956.72;;;12.92;62.11
16595;BME280;8410;52.532;13.336;2023-03-19T04:17:19;100956.56;;;12.65;63.48
16595;BME280;8410;52.532;13.336;2023-03-19T04:19:47;100956.50;;;12.57;63.53
16595;BME280;8410;52.532;13.336;2023-03-19T04:22:14;100961.94;;;12.98;62.89
16595;BME280;8410;52.532;13.336;2023-03-19T04:24:42;100965.34;;;12.93;62.97
16595;BME280;8410;52.532;13.336;2023-03-19T04:27:11;100962.69;;;12.85;63.33
16595;BME280;8410;52.532;13.336;2023-03-19T04:29:38;100967.88;;;12.88;63.88
16595;BME280;8410;52.532;13.336;2023-03-19T04:32:06;100975.75;;;13.02;63.75
16595;BME280;8410;52.532;13.336;2023-03-19T04:34:34;100981.69;;;11.89;65.58
16595;BME280;8410;52.532;13.336;2023-03-19T04:37:02;100988.97;;;12.32;66.20
16595;BME280;8410;52.532;13.336;2023-03-19T04:39:30;100979.78;;;12.65;64.96
16595;BME280;8410;52.532;13.336;2023-03-19T04:41:58;100990.28;;;12.88;64.83
16595;BME280;8410;52.532;13.336;2023-03-19T04:44:27;100990.44;;;13.11;63.52
16595;BME280;8410;52.532;13.336;2023-03-19T04:46:56;100981.59;;;12.79;64.04
16595;BME280;8410;52.532;13.336;2023-03-19T04:49:23;100991.25;;;12.01;64.68
16595;BME280;8410;52.532;13.336;2023-03-19T04:51:51;100991.06;;;12.73;63.37
16595;BME280;8410;52.532;13.336;2023-03-19T04:54:18;100993.56;;;12.67;64.80
16595;BME280;8410;52.532;13.336;2023-03-19T04:56:46;100983.44;;;12.96;64.81
16595;BME280;8410;52.532;13.336;2023-03-19T04:59:13;100986.09;;;13.03;63.56
16595;BME280;8410;52.532;13.336;2023-03-19T05:01:42;100998.66;;;12.54;65.61
16595;BME280;8410;52.532;13.336;2023-03-19T05:04:09;100984.34;;;12.99;65.44
16595;BME280;8410;52.532;13.336;2023-03-19T05:06:37;100980.00;;;12.98;65.79
16595;BME280;8410;52.532;13.336;2023-03-19T05:09:05;100977.38;;;12.91;66.66
16595;BME280;8410;52.532;13.336;2023-03-19T05:11:33;100964.38;;;12.77;67.13
16595;BME280;8410;52.532;13.336;2023-03-19T05:14:00;100961.00;;;12.87;66.77
16595;BME280;8410;52.532;13.336;2023-03-19T05:16:28;100964.47;;;12.92;69.38
16595;BME280;8410;52.532;13.336;2023-03-19T05:18:57;100957.47;;;12.73;69.72
16595;BME280;8410;52.532;13.336;2023-03-19T05:21:24;100979.56;;;11.59;74.81
16595;BME280;8410;52.532;13.336;2023-03-19T05:23:52;100988.19;;;12.42;75.34
16595;BME280;8410;52.532;13.336;2023-03-19T05:26:20;100997.06;;;12.75;74.21
16595;BME280;8410;52.532;13.336;2023-03-19T05:28:47;101003.84;;;12.61;74.70
16595;BME280;8410;52.532;13.336;2023-03-19T05:31:15;100995.38;;;12.80;75.44
16595;BME280;8410;52.532;13.336;2023-03-19T05:33:43;100995.19;;;12.52;76.22
16595;BME280;8410;52.532;13.336;2023-03-19T05:36:11;100981.16;;;12.26;77.61
16595;BME280;8410;52.532;13.336;2023-03-19T05:38:39;100965.59;;;11.40;80.68
16595;BME280;8410;52.532;13.336;2023-03-19T05:41:07;100929.88;;;11.74;80.39
16595;BME280;8410;52.532;13.336;2023-03-19T05:43:34;100930.09;;;11.19;84.22
16595;BME280;8410;52.532;13.336;2023-03-19T05:46:02;100923.28;;;11.24;86.67
16595;BME280;8410;52.532;13.336;2023-03-19T05:48:30;100937.78;;;10.57;87.83
16595;BME280;8410;52.532;13.336;2023-03-19T05:50:58;100936.00;;;10.53;90.41
16595;BME280;8410;52.532;13.336;2023-03-19T05:53:27;100937.75;;;10.54;89.88
16595;BME280;8410;52.532;13.336;2023-03-19T05:55:55;100922.09;;;10.42;90.66
16595;BME280;8410;52.532;13.336;2023-03-19T05:58:23;100916.97;;;10.42;89.85
16595;BME280;8410;52.532;13.336;2023-03-19T06:00:53;100920.72;;;10.62;90.80
16595;BME280;8410;52.532;13.336;2023-03-19T06:03:21;100930.13;;;10.58;91.23
16595;BME280;8410;52.532;13.336;2023-03-19T06:05:49;100921.16;;;10.93;89.85
16595;BME280;8410;52.532;13.336;2023-03-19T06:08:17;100919.38;;;10.89;90.28
16595;BME280;8410;52.532;13.336;2023-03-19T06:10:46;100922.22;;;11.09;88.72
16595;BME280;8410;52.532;13.336;2023-03-19T06:13:13;100927.53;;;11.21;88.77
16595;BME280;8410;52.532;13.336;2023-03-19T06:15:41;100930.25;;;11.33;88.84
16595;BME280;8410;52.532;13.336;2023-03-19T06:18:08;100926.31;;;11.61;86.50
16595;BME280;8410;52.532;13.336;2023-03-19T06:20:36;100927.28;;;12.67;83.91
16595;BME280;8410;52.532;13.336;2023-03-19T06:23:03;100929.59;;;12.32;83.83
16595;BME280;8410;52.532;13.336;2023-03-19T06:25:31;100933.25;;;12.58;82.69
16595;BME280;8410;52.532;13.336;2023-03-19T06:27:59;100933.31;;;12.65;81.45
16595;BME280;8410;52.532;13.336;2023-03-19T06:30:27;100940.81;;;12.35;81.97
16595;BME280;8410;52.532;13.336;2023-03-19T06:32:54;100942.41;;;13.51;78.99
16595;BME280;8410;52.532;13.336;2023-03-19T06:35:22;100949.41;;;13.87;78.27
16595;BME280;8410;52.532;13.336;2023-03-19T06:37:49;100945.13;;;14.03;77.90
16595;BME280;8410;52.532;13.336;2023-03-19T06:40:18;100955.47;;;13.93;79.20
16595;BME280;8410;52.532;13.336;2023-03-19T06:42:45;100965.00;;;14.37;78.05
16595;BME280;8410;52.532;13.336;2023-03-19T06:45:15;100984.88;;;14.51;77.76
16595;BME280;8410;52.532;13.336;2023-03-19T06:47:44;101004.72;;;14.51;77.45
16595;BME280;8410;52.532;13.336;2023-03-19T06:50:13;101017.66;;;14.43;77.86
16595;BME280;8410;52.532;13.336;2023-03-19T06:52:41;101015.06;;;14.40;78.57
16595;BME280;8410;52.532;13.336;2023-03-19T06:55:10;101025.41;;;14.17;78.23
16595;BME280;8410;52.532;13.336;2023-03-19T06:57:38;101017.53;;;13.82;79.05
16595;BME280;8410;52.532;13.336;2023-03-19T07:00:06;101036.38;;;13.52;79.36
16595;BME280;8410;52.532;13.336;2023-03-19T07:02:38;101073.56;;;13.69;80.26
16595;BME280;8410;52.532;13.336;2023-03-19T07:05:05;101101.22;;;13.84;80.16
16595;BME280;8410;52.532;13.336;2023-03-19T07:07:33;101111.13;;;13.18;83.97
16595;BME280;8410;52.532;13.336;2023-03-19T07:10:01;101094.19;;;12.54;84.96
16595;BME280;8410;52.532;13.336;2023-03-19T07:12:29;101081.56;;;12.85;84.56
16595;BME280;8410;52.532;13.336;2023-03-19T07:14:56;101082.94;;;12.46;84.56
16595;BME280;8410;52.532;13.336;2023-03-19T07:17:24;101108.56;;;13.21;82.13
16595;BME280;8410;52.532;13.336;2023-03-19T07:19:53;101133.56;;;13.20;81.67
16595;BME280;8410;52.532;13.336;2023-03-19T07:22:21;101116.16;;;12.99;82.89
16595;BME280;8410;52.532;13.336;2023-03-19T07:24:48;101108.38;;;12.16;85.85
16595;BME280;8410;52.532;13.336;2023-03-19T07:27:19;101089.75;;;12.41;84.51
16595;BME280;8410;52.532;13.336;2023-03-19T07:29:50;101074.59;;;11.32;89.06
16595;BME280;8410;52.532;13.336;2023-03-19T07:32:18;101064.50;;;10.41;95.63
16595;BME280;8410;52.532;13.336;2023-03-19T07:34:45;101029.44;;;10.46;97.95
16595;BME280;8410;52.532;13.336;2023-03-19T07:37:14;101021.13;;;10.62;99.20
16595;BME280;8410;52.532;13.336;2023-03-19T07:39:42;101025.38;;;10.58;97.77
16595;BME280;8410;52.532;13.336;2023-03-19T07:42:09;101024.13;;;10.90;95.69
16595;BME280;8410;52.532;13.336;2023-03-19T07:44:37;101024.41;;;10.53;96.06
16595;BME280;8410;52.532;13.336;2023-03-19T07:47:05;101021.56;;;10.90;96.92
16595;BME280;8410;52.532;13.336;2023-03-19T07:49:59;101008.66;;;12.21;93.02
16595;BME280;8410;52.532;13.336;2023-03-19T07:52:28;101009.09;;;12.68;88.63
16595;BME280;8410;52.532;13.336;2023-03-19T07:54:55;101013.59;;;12.98;87.60
16595;BME280;8410;52.532;13.336;2023-03-19T07:57:23;101031.69;;;12.98;85.99
16595;BME280;8410;52.532;13.336;2023-03-19T07:59:51;101036.97;;;13.14;87.77
16595;BME280;8410;52.532;13.336;2023-03-19T08:02:18;101024.09;;;13.15;87.61
16595;BME280;8410;52.532;13.336;2023-03-19T08:04:48;101030.09;;;13.13;87.56
16595;BME280;8410;52.532;13.336;2023-03-19T08:07:16;101033.66;;;13.27;86.90
16595;BME280;8410;52.532;13.336;2023-03-19T08:09:45;101030.19;;;12.23;85.82
16595;BME280;8410;52.532;13.336;2023-03-19T08:12:13;101027.13;;;11.83;87.61
16595;BME280;8410;52.532;13.336;2023-03-19T08:14:40;101040.03;;;12.64;87.48
16595;BME280;8410;52.532;13.336;2023-03-19T08:17:08;101044.66;;;13.00;85.94
16595;BME280;8410;52.532;13.336;2023-03-19T08:19:35;101050.78;;;13.16;86.20
16595;BME280;8410;52.532;13.336;2023-03-19T08:22:03;101065.41;;;13.14;85.50
16595;BME280;8410;52.532;13.336;2023-03-19T08:24:31;101075.94;;;13.35;85.25
16595;BME280;8410;52.532;13.336;2023-03-19T08:27:00;101087.00;;;13.19;85.51
16595;BME280;8410;52.532;13.336;2023-03-19T08:29:27;101088.84;;;13.29;84.96
16595;BME280;8410;52.532;13.336;2023-03-19T08:31:55;101105.22;;;13.33;84.57
16595;BME280;8410;52.532;13.336;2023-03-19T08:34:23;101110.31;;;13.25;85.02
16595;BME280;8410;52.532;13.336;2023-03-19T08:36:52;101122.47;;;13.35;84.99
16595;BME280;8410;52.532;13.336;2023-03-19T08:39:19;101107.56;;;13.07;85.47
16595;BME280;8410;52.532;13.336;2023-03-19T08:41:47;101114.84;;;12.56;87.07
16595;BME280;8410;52.532;13.336;2023-03-19T08:44:15;101100.47;;;12.78;87.51
16595;BME280;8410;52.532;13.336;2023-03-19T08:46:43;101097.06;;;12.88;86.92
16595;BME280;8410;52.532;13.336;2023-03-19T08:49:10;101104.03;;;12.95;87.67
16595;BME280;8410;52.532;13.336;2023-03-19T08:51:38;101102.53;;;13.22;86.87
16595;BME280;8410;52.532;13.336;2023-03-19T08:54:05;101104.16;;;13.11;85.55
16595;BME280;8410;52.532;13.336;2023-03-19T08:56:34;101110.66;;;12.66;87.27
16595;BME280;8410;52.532;13.336;2023-03-19T08:59:01;101098.00;;;12.92;88.11
16595;BME280;8410;52.532;13.336;2023-03-19T09:01:30;101091.88;;;12.84;87.40
16595;BME280;8410;52.532;13.336;2023-03-19T09:03:58;101079.81;;;12.81;88.49
16595;BME280;8410;52.532;13.336;2023-03-19T09:06:25;101067.69;;;12.77;87.64
16595;BME280;8410;52.532;13.336;2023-03-19T09:08:56;101074.34;;;12.50;89.40
16595;BME280;8410;52.532;13.336;2023-03-19T09:11:25;101076.44;;;12.93;87.64
16595;BME280;8410;52.532;13.336;2023-03-19T09:13:52;101078.22;;;12.98;87.58
16595;BME280;8410;52.532;13.336;2023-03-19T09:16:20;101072.00;;;12.73;87.71
16595;BME280;8410;52.532;13.336;2023-03-19T09:18:48;101062.56;;;12.78;88.28
16595;BME280;8410;52.532;13.336;2023-03-19T09:21:17;101059.41;;;12.20;89.65
16595;BME280;8410;52.532;13.336;2023-03-19T09:23:44;101066.22;;;12.12;91.25
16595;BME280;8410;52.532;13.336;2023-03-19T09:26:12;101057.16;;;12.52;89.30
16595;BME280;8410;52.532;13.336;2023-03-19T09:28:39;101055.84;;;12.09;92.84
16595;BME280;8410;52.532;13.336;2023-03-19T09:31:08;101049.97;;;12.24;92.92
16595;BME280;8410;52.532;13.336;2023-03-19T09:33:36;101051.50;;;12.03;91.04
16595;BME280;8410;52.532;13.336;2023-03-19T09:36:06;101049.50;;;12.62;91.42
16595;BME280;8410;52.532;13.336;2023-03-19T09:38:34;101052.50;;;12.18;91.71
16595;BME280;8410;52.532;13.336;2023-03-19T09:41:07;101041.63;;;12.49;92.68
16595;BME280;8410;52.532;13.336;2023-03-19T09:43:55;101048.81;;;11.97;92.74
16595;BME280;8410;52.532;13.336;2023-03-19T09:46:28;101043.53;;;12.69;93.59
16595;BME280;8410;52.532;13.336;2023-03-19T09:49:03;101034.28;;;12.94;92.24
16595;BME280;8410;52.532;13.336;2023-03-19T09:51:39;101029.72;;;12.65;91.79
16595;BME280;8410;52.532;13.336;2023-03-19T09:54:21;101035.03;;;12.85;95.58
16595;BME280;8410;52.532;13.336;2023-03-19T09:56:49;101027.28;;;12.80;93.28
16595;BME280;8410;52.532;13.336;2023-03-19T09:59:16;101021.34;;;12.95;91.42
16595;BME280;8410;52.532;13.336;2023-03-19T10:01:49;101023.53;;;13.76;90.04
16595;BME280;8410;52.532;13.336;2023-03-19T10:04:35;101022.81;;;14.17;86.18
16595;BME280;8410;52.532;13.336;2023-03-19T10:07:14;101016.78;;;14.21;88.34
16595;BME280;8410;52.532;13.336;2023-03-19T10:09:52;101022.81;;;14.23;84.90
16595;BME280;8410;52.532;13.336;2023-03-19T10:12:33;101029.66;;;14.06;88.17
16595;BME280;8410;52.532;13.336;2023-03-19T10:15:16;101024.56;;;14.40;85.53
16595;BME280;8410;52.532;13.336;2023-03-19T10:17:54;101023.75;;;14.59;86.29
16595;BME280;8410;52.532;13.336;2023-03-19T10:20:29;101025.44;;;14.39;88.55
16595;BME280;8410;52.532;13.336;2023-03-19T10:23:02;101018.50;;;15.37;85.33
16595;BME280;8410;52.532;13.336;2023-03-19T10:25:40;101023.44;;;16.00;79.95
16595;BME280;8410;52.532;13.336;2023-03-19T10:28:13;101026.94;;;15.90;81.61
16595;BME280;8410;52.532;13.336;2023-03-19T10:30:41;101022.53;;;16.09;79.82
16595;BME280;8410;52.532;13.336;2023-03-19T10:33:19;101026.88;;;16.05;81.02
16595;BME280;8410;52.532;13.336;2023-03-19T10:35:56;101034.84;;;15.69;81.87
16595;BME280;8410;52.532;13.336;2023-03-19T10:38:26;101033.00;;;15.94;81.30
16595;BME280;8410;52.532;13.336;2023-03-19T10:41:04;101028.78;;;15.66;81.81
16595;BME280;8410;52.532;13.336;2023-03-19T10:43:38;101031.22;;;16.02;80.46
16595;BME280;8410;52.532;13.336;2023-03-19T10:46:11;101026.88;;;16.07;80.15
16595;BME280;8410;52.532;13.336;2023-03-19T10:48:42;101027.91;;;15.63;78.71
16595;BME280;8410;52.532;13.336;2023-03-19T10:51:13;101034.13;;;14.84;83.91
16595;BME280;8410;52.532;13.336;2023-03-19T10:53:42;101025.28;;;15.74;82.71
16595;BME280;8410;52.532;13.336;2023-03-19T10:56:17;101025.78;;;16.40;80.26
16595;BME280;8410;52.532;13.336;2023-03-19T10:58:59;101021.19;;;16.73;79.51
16595;BME280;8410;52.532;13.336;2023-03-19T11:01:31;101026.53;;;16.58;78.52
16595;BME280;8410;52.532;13.336;2023-03-19T11:04:00;101019.47;;;16.75;79.24
16595;BME280;8410;52.532;13.336;2023-03-19T11:06:31;101025.53;;;16.72;79.44
16595;BME280;8410;52.532;13.336;2023-03-19T11:09:13;101027.59;;;16.29;78.30
16595;BME280;8410;52.532;13.336;2023-03-19T11:11:43;101030.00;;;16.57;79.14
16595;BME280;8410;52.532;13.336;2023-03-19T11:14:14;101041.16;;;16.68;79.57
16595;BME280;8410;52.532;13.336;2023-03-19T11:16:53;101022.91;;;16.80;79.38
16595;BME280;8410;52.532;13.336;2023-03-19T11:19:23;101029.81;;;16.81;78.35
16595;BME280;8410;52.532;13.336;2023-03-19T11:22:01;101035.94;;;16.74;79.90
16595;BME280;8410;52.532;13.336;2023-03-19T11:24:32;101028.34;;;16.46;79.14
16595;BME280;8410;52.532;13.336;2023-03-19T11:27:03;101028.47;;;16.31;79.42
16595;BME280;8410;52.532;13.336;2023-03-19T11:29:40;101035.47;;;16.14;81.26
16595;BME280;8410;52.532;13.336;2023-03-19T11:32:23;101030.88;;;16.56;79.39
16595;BME280;8410;52.532;13.336;2023-03-19T11:34:55;101028.19;;;16.65;77.68
16595;BME280;8410;52.532;13.336;2023-03-19T11:37:31;101025.63;;;16.63;78.11
16595;BME280;8410;52.532;13.336;2023-03-19T11:40:07;101025.53;;;16.77;77.91
16595;BME280;8410;52.532;13.336;2023-03-19T11:42:58;101019.41;;;16.87;77.54
16595;BME280;8410;52.532;13.336;2023-03-19T11:45:34;101033.50;;;16.52;78.08
16595;BME280;8410;52.532;13.336;2023-03-19T11:48:21;101029.00;;;16.76;77.74
16595;BME280;8410;52.532;13.336;2023-03-19T11:50:57;101027.22;;;16.83;77.26
16595;BME280;8410;52.532;13.336;2023-03-19T11:53:27;101028.13;;;16.74;76.65
16595;BME280;8410;52.532;13.336;2023-03-19T11:56:08;101025.44;;;16.86;76.13
16595;BME280;8410;52.532;13.336;2023-03-19T11:58:52;101022.84;;;16.86;76.39
16595;BME280;8410;52.532;13.336;2023-03-19T12:01:38;101026.69;;;16.39;76.73
16595;BME280;8410;52.532;13.336;2023-03-19T12:04:24;101027.00;;;15.85;76.36
16595;BME280;8410;52.532;13.336;2023-03-19T12:06:59;101022.34;;;16.40;75.51
16595;BME280;8410;52.532;13.336;2023-03-19T12:09:34;101022.16;;;16.60;76.02
16595;BME280;8410;52.532;13.336;2023-03-19T12:12:12;101025.75;;;16.43;76.30
16595;BME280;8410;52.532;13.336;2023-03-19T12:14:51;101018.59;;;16.78;75.29
16595;BME280;8410;52.532;13.336;2023-03-19T12:17:30;101021.16;;;16.82;74.56
16595;BME280;8410;52.532;13.336;2023-03-19T12:20:16;101023.81;;;16.78;74.84
16595;BME280;8410;52.532;13.336;2023-03-19T12:22:59;101017.59;;;16.95;74.71
16595;BME280;8410;52.532;13.336;2023-03-19T12:25:42;101023.47;;;17.13;73.98
16595;BME280;8410;52.532;13.336;2023-03-19T12:28:19;101019.06;;;17.18;74.22
16595;BME280;8410;52.532;13.336;2023-03-19T12:31:00;101012.13;;;17.20;73.12
16595;BME280;8410;52.532;13.336;2023-03-19T12:33:40;101015.72;;;17.07;72.19
16595;BME280;8410;52.532;13.336;2023-03-19T12:36:13;101012.91;;;17.30;72.34
16595;BME280;8410;52.532;13.336;2023-03-19T12:38:46;101009.06;;;16.78;71.69
16595;BME280;8410;52.532;13.336;2023-03-19T12:41:18;101003.53;;;17.12;72.12
16595;BME280;8410;52.532;13.336;2023-03-19T12:43:53;101003.34;;;17.30;71.19
16595;BME280;8410;52.532;13.336;2023-03-19T12:46:27;101004.09;;;17.40;71.76
16595;BME280;8410;52.532;13.336;2023-03-19T12:49:01;101010.91;;;17.52;71.19
16595;BME280;8410;52.532;13.336;2023-03-19T12:51:32;100998.53;;;17.69;71.37
16595;BME280;8410;52.532;13.336;2023-03-19T12:54:05;100983.81;;;17.68;71.38
16595;BME280;8410;52.532;13.336;2023-03-19T12:56:38;100990.75;;;17.66;71.15
16595;BME280;8410;52.532;13.336;2023-03-19T12:59:28;100993.38;;;17.68;71.82
16595;BME280;8410;52.532;13.336;2023-03-19T13:01:59;101003.16;;;17.49;71.53
16595;BME280;8410;52.532;13.336;2023-03-19T13:04:30;100996.00;;;17.63;71.64
16595;BME280;8410;52.532;13.336;2023-03-19T13:07:01;100996.88;;;17.65;71.45